Interessegrupper
Antall som skal vises: 
Nr. Nettlenke Treff
1   Link   BirdDog
1930
2   Link   Cessna Owner Organization
3061
3   Link   Cessna Pilots Association
1688
4   Link   Dakota Norway
3127
5   Link   DC-3 Vennerne
1656
6   Link   Europa Club
1855
7   Link   Kjevik Siden
1877
8   Link   Lancair Pilots
2020
9   Link   Piper Owner Society
2229
10   Link   Scandinavian Historic Flight
1806
11   Link   Seaplane Pilots Association
1668
12   Link   StarFighter
2004
13   Link   Storch
1849
14   Link   SuperCub
3073
15   Link   Svensk Flyghistorisk Forening
1702
16   Link   The Flying Clippers
1678
17   Link   The Old Flying Machine Company
1593
18   Link   Troms luftsportskrets
1824
19   Link   Vintage Aircraft Association
2934
20   Link   Warbirds of Norway
2028
«StartForrige12NesteSiste»
Side 1 av 2
 
METAR
2018/10/20 20:50 ENCN 202050Z 25006KT 9999 FEW043 BKN064 10/07 Q1024
TAF
2018/10/20 18:38 TAF ENCN 201700Z 2018/2021 VRB05KT 9999 FEW040 BKN070
LN-KFK
Operativ VFR-natt
VFR dag
07:33 - 18:51
Brannvakt
Inaktiv
Banner
Banner
Banner
Banner
Banner